Weather at Aktion National Airport

Public forecast

Using degrees Celsius for public forecast. Weather courtesy of forecast.io.

Current aviation weather report (METAR) for Aktion National Airport

Report is more than 6 hours old.

2022/11/14 15:20 (retrieved 2 years ago)

LGPZ 141520Z 00000KT 9999 FEW020 17/14 Q1022

Aviation forecast (TAF) for Aktion National Airport

Forecast is more than 12 hours old.

2023/02/22 18:13 (retrieved 1 year ago)

TAF LGPZ 221700Z 2218/2318 VRB05KT 9999 SCT018 PROB40 2223/2306 5000 BR SCT008 BECMG 2309/2311 27010KT